Time;durP1;ratioP1;P1;durP2;ratioP2;P2;SDS_P1;SDS_P2;PMS_P1;PMS_P2;Temp;Humidity;BMP_temperature;BMP_pressure;BME280_temperature;BME280_humidity;BME280_pressure;Samples;Min_cycle;Max_cycle;Signal;HPM_P1;HPM_P2
2020/12/20 00:01:57;;;;;;;0.60;0.60;;;7.10;99.90;;;;;;5072716;28;20687;-81
2020/12/20 00:04:23;;;;;;;0.50;0.50;;;7.10;99.90;;;;;;5072681;28;20199;-81
2020/12/20 00:06:49;;;;;;;0.50;0.50;;;7.00;99.90;;;;;;5072758;28;20207;-81
2020/12/20 00:09:19;;;;;;;0.57;0.57;;;7.00;99.90;;;;;;5072866;28;20228;-81
2020/12/20 00:11:47;;;;;;;0.55;0.55;;;7.00;99.90;;;;;;5072459;28;20701;-81
2020/12/20 00:14:29;;;;;;;0.57;0.57;;;7.10;99.90;;;;;;5072892;28;20599;-81
2020/12/20 00:16:59;;;;;;;0.60;0.60;;;7.00;99.90;;;;;;5072585;28;20658;-81
2020/12/20 00:19:26;;;;;;;0.60;0.60;;;7.00;99.90;;;;;;5072793;28;20195;-81
2020/12/20 00:21:57;;;;;;;0.50;0.50;;;7.00;99.90;;;;;;5072142;28;20210;-81
2020/12/20 00:24:23;;;;;;;0.60;0.60;;;7.00;99.90;;;;;;5072620;28;20204;-80
2020/12/20 00:26:52;;;;;;;0.50;0.50;;;7.00;99.90;;;;;;5072084;28;20212;-81
2020/12/20 00:29:18;;;;;;;0.60;0.60;;;7.10;99.90;;;;;;5072213;28;20230;-81
2020/12/20 00:31:45;;;;;;;0.50;0.50;;;7.10;99.90;;;;;;5072188;28;20222;-81
2020/12/20 00:34:12;;;;;;;0.50;0.50;;;7.10;99.90;;;;;;5072607;28;20253;-81
2020/12/20 00:36:38;;;;;;;0.50;0.50;;;7.10;99.90;;;;;;5072101;28;20200;-81
2020/12/20 00:39:05;;;;;;;0.60;0.60;;;7.20;99.90;;;;;;5072080;28;20200;-81
2020/12/20 00:41:31;;;;;;;0.60;0.60;;;7.20;99.90;;;;;;5072139;28;20200;-81
2020/12/20 00:43:58;;;;;;;0.60;0.60;;;7.20;99.90;;;;;;5072230;28;20203;-81
2020/12/20 00:46:24;;;;;;;0.50;0.50;;;7.10;99.90;;;;;;5072638;28;20249;-83
2020/12/20 00:48:50;;;;;;;0.50;0.50;;;7.20;99.90;;;;;;5071998;28;20722;-81
2020/12/20 00:51:17;;;;;;;0.60;0.60;;;7.10;99.90;;;;;;5072201;28;20208;-82
2020/12/20 00:53:43;;;;;;;0.50;0.50;;;7.20;99.90;;;;;;5071955;28;20686;-82
2020/12/20 00:56:13;;;;;;;0.55;0.55;;;7.10;99.90;;;;;;5072066;28;20203;-81
2020/12/20 00:58:39;;;;;;;0.50;0.50;;;7.10;99.90;;;;;;5071619;28;20192;-82
2020/12/20 01:01:05;;;;;;;0.60;0.60;;;7.10;99.90;;;;;;5071527;28;20231;-81
2020/12/20 01:03:31;;;;;;;0.55;0.55;;;7.10;99.90;;;;;;5071969;28;20207;-82
2020/12/20 01:05:57;;;;;;;0.60;0.60;;;7.10;99.90;;;;;;5072019;28;20203;-81
2020/12/20 01:08:24;;;;;;;0.50;0.50;;;7.00;99.90;;;;;;5071719;28;20220;-81
2020/12/20 01:10:50;;;;;;;0.50;0.50;;;7.10;99.90;;;;;;5071376;28;20228;-81
2020/12/20 01:13:16;;;;;;;0.60;0.60;;;7.00;99.90;;;;;;5071610;28;20207;-81
2020/12/20 01:15:43;;;;;;;0.52;0.52;;;7.10;99.90;;;;;;5071490;28;20203;-81
2020/12/20 01:18:09;;;;;;;0.50;0.50;;;7.10;99.90;;;;;;5071338;28;20196;-81
2020/12/20 01:20:35;;;;;;;0.55;0.55;;;7.10;99.90;;;;;;5071248;28;20195;-82
2020/12/20 01:23:01;;;;;;;0.50;0.50;;;7.10;99.90;;;;;;5071363;28;20669;-82
2020/12/20 01:25:28;;;;;;;0.50;0.50;;;7.10;99.90;;;;;;5071453;28;20203;-81
2020/12/20 01:27:54;;;;;;;0.52;0.52;;;7.00;99.90;;;;;;5071113;28;20203;-81
2020/12/20 01:30:20;;;;;;;0.50;0.50;;;7.00;99.90;;;;;;5071440;28;20668;-81
2020/12/20 01:32:46;;;;;;;0.60;0.60;;;7.00;99.90;;;;;;5071067;28;20209;-81
2020/12/20 01:35:12;;;;;;;0.50;0.50;;;7.00;99.90;;;;;;5071497;28;20261;-81
2020/12/20 01:37:39;;;;;;;0.50;0.50;;;7.00;99.90;;;;;;5071450;28;20206;-81
2020/12/20 01:40:05;;;;;;;0.52;0.52;;;7.00;99.90;;;;;;5070866;28;20200;-81
2020/12/20 01:42:32;;;;;;;0.50;0.50;;;7.00;99.90;;;;;;5071007;28;20200;-82
2020/12/20 01:44:59;;;;;;;0.50;0.50;;;7.00;99.90;;;;;;5071293;28;20204;-81
2020/12/20 01:47:27;;;;;;;0.60;0.60;;;7.00;99.90;;;;;;5071298;28;20207;-81
2020/12/20 01:49:55;;;;;;;0.60;0.60;;;7.00;99.90;;;;;;5070708;28;20222;-81
2020/12/20 01:52:21;;;;;;;0.60;0.60;;;7.00;99.90;;;;;;5071026;28;20242;-82
2020/12/20 01:54:51;;;;;;;0.60;0.60;;;6.90;99.90;;;;;;5071186;28;20200;-81
2020/12/20 01:57:17;;;;;;;0.55;0.55;;;6.90;99.90;;;;;;5070538;28;20204;-81
2020/12/20 01:59:46;;;;;;;0.52;0.52;;;7.00;99.90;;;;;;5070737;28;20192;-82
2020/12/20 02:02:12;;;;;;;0.50;0.50;;;7.00;99.90;;;;;;5070663;28;20579;-81
2020/12/20 02:04:39;;;;;;;0.60;0.60;;;7.00;99.90;;;;;;5070304;28;20295;-81
2020/12/20 02:07:05;;;;;;;0.60;0.60;;;7.00;99.90;;;;;;5070361;28;20235;-81
2020/12/20 02:09:31;;;;;;;0.52;0.52;;;7.00;99.90;;;;;;5070673;28;20227;-81
2020/12/20 02:12:02;;;;;;;0.60;0.60;;;6.90;99.90;;;;;;5070330;28;20558;-81
2020/12/20 02:14:28;;;;;;;0.50;0.50;;;6.90;99.90;;;;;;5069817;28;20680;-81
2020/12/20 02:16:55;;;;;;;0.60;0.60;;;6.90;99.90;;;;;;5070313;28;20635;-81
2020/12/20 02:19:22;;;;;;;0.50;0.50;;;7.00;99.90;;;;;;5070409;28;20549;-81
2020/12/20 02:21:48;;;;;;;0.50;0.50;;;7.00;99.90;;;;;;5070120;28;20203;-81
2020/12/20 02:24:18;;;;;;;0.60;0.60;;;7.10;99.90;;;;;;5070202;28;20218;-81
2020/12/20 02:26:44;;;;;;;0.60;0.60;;;7.10;99.90;;;;;;5070143;28;20211;-81
2020/12/20 02:29:11;;;;;;;0.57;0.57;;;7.10;99.90;;;;;;5070062;28;20791;-81
2020/12/20 02:31:37;;;;;;;0.50;0.50;;;7.10;99.90;;;;;;5069868;28;20203;-81
2020/12/20 02:34:04;;;;;;;0.60;0.60;;;7.10;99.90;;;;;;5069843;28;20689;-81
2020/12/20 02:36:30;;;;;;;0.55;0.55;;;7.10;99.90;;;;;;5070181;28;20203;-81
2020/12/20 02:38:58;;;;;;;0.60;0.60;;;7.10;99.90;;;;;;5070089;28;20200;-82
2020/12/20 02:41:24;;;;;;;0.60;0.60;;;7.10;99.90;;;;;;5069813;28;20262;-82
2020/12/20 02:43:50;;;;;;;0.50;0.50;;;7.10;99.90;;;;;;5069674;28;20204;-82
2020/12/20 02:46:20;;;;;;;0.60;0.60;;;7.00;99.90;;;;;;5069884;28;20233;-82
2020/12/20 02:48:46;;;;;;;0.52;0.52;;;7.00;99.90;;;;;;5069768;28;20254;-82
2020/12/20 02:51:13;;;;;;;0.50;0.50;;;7.00;99.90;;;;;;5069347;28;20578;-82
2020/12/20 02:53:39;;;;;;;0.50;0.50;;;7.00;99.90;;;;;;5069562;28;20684;-82
2020/12/20 02:56:06;;;;;;;0.50;0.50;;;7.00;99.90;;;;;;5069763;28;20203;-82
2020/12/20 02:58:33;;;;;;;0.50;0.50;;;7.00;99.90;;;;;;5069707;28;20496;-82
2020/12/20 03:01:00;;;;;;;0.60;0.60;;;6.90;99.90;;;;;;5069211;28;20231;-82
2020/12/20 03:03:26;;;;;;;0.60;0.60;;;6.90;99.90;;;;;;5069653;28;20207;-82
2020/12/20 03:05:52;;;;;;;0.60;0.60;;;6.90;99.90;;;;;;5069563;28;20278;-82
2020/12/20 03:08:18;;;;;;;0.60;0.60;;;6.90;99.90;;;;;;5069757;28;20231;-82
2020/12/20 03:10:44;;;;;;;0.50;0.50;;;6.80;99.90;;;;;;5069226;28;20219;-82
2020/12/20 03:13:11;;;;;;;0.50;0.50;;;6.80;99.90;;;;;;5069417;28;20616;-82
2020/12/20 03:15:41;;;;;;;0.57;0.57;;;6.90;99.90;;;;;;5069436;28;20207;-81
2020/12/20 03:18:07;;;;;;;0.60;0.60;;;6.90;99.90;;;;;;5069357;28;20226;-82
2020/12/20 03:20:33;;;;;;;0.60;0.60;;;6.90;99.90;;;;;;5069004;28;20200;-81
2020/12/20 03:22:59;;;;;;;0.50;0.50;;;6.90;99.90;;;;;;5069061;28;20199;-81
2020/12/20 03:25:25;;;;;;;0.50;0.50;;;6.90;99.90;;;;;;5068302;28;20242;-81
2020/12/20 03:27:52;;;;;;;0.50;0.50;;;6.80;99.90;;;;;;5069225;28;20200;-81
2020/12/20 03:30:19;;;;;;;0.60;0.60;;;6.80;99.90;;;;;;5069286;28;20658;-82
2020/12/20 03:32:45;;;;;;;0.50;0.50;;;6.80;99.90;;;;;;5069248;28;20203;-82
2020/12/20 03:35:11;;;;;;;0.50;0.50;;;6.80;99.90;;;;;;5069155;28;20200;-81
2020/12/20 03:37:37;;;;;;;0.50;0.50;;;6.80;99.90;;;;;;5069140;28;20203;-81
2020/12/20 03:40:04;;;;;;;0.50;0.50;;;6.80;99.90;;;;;;5069301;28;20203;-81
2020/12/20 03:42:30;;;;;;;0.60;0.60;;;6.80;99.90;;;;;;5069001;28;20204;-81
2020/12/20 03:44:57;;;;;;;0.50;0.50;;;6.70;99.90;;;;;;5068954;28;20203;-81
2020/12/20 03:47:24;;;;;;;0.60;0.60;;;6.80;99.90;;;;;;5069242;28;20195;-82
2020/12/20 03:49:50;;;;;;;0.57;0.57;;;6.70;99.90;;;;;;5068979;28;20242;-81
2020/12/20 03:52:16;;;;;;;0.55;0.55;;;6.70;99.90;;;;;;5068787;28;20216;-81
2020/12/20 03:54:42;;;;;;;0.60;0.60;;;6.70;99.90;;;;;;5068948;28;20207;-82
2020/12/20 03:57:08;;;;;;;0.50;0.50;;;6.70;99.90;;;;;;5069093;28;20204;-82
2020/12/20 03:59:39;;;;;;;0.50;0.50;;;6.70;99.90;;;;;;5069031;28;20200;-82
2020/12/20 04:02:05;;;;;;;0.55;0.55;;;6.70;99.90;;;;;;5068651;28;20227;-81
2020/12/20 04:04:32;;;;;;;0.60;0.60;;;6.70;99.90;;;;;;5068899;28;20250;-81
2020/12/20 04:06:58;;;;;;;0.50;0.50;;;6.70;99.90;;;;;;5068928;28;20203;-81
2020/12/20 04:09:24;;;;;;;0.50;0.50;;;6.70;99.90;;;;;;5068929;28;20223;-81
2020/12/20 04:11:50;;;;;;;0.50;0.50;;;6.70;99.90;;;;;;5068511;28;20216;-81
2020/12/20 04:14:16;;;;;;;0.52;0.52;;;6.70;99.90;;;;;;5068730;28;20249;-81
2020/12/20 04:16:42;;;;;;;0.60;0.60;;;6.70;99.90;;;;;;5068675;28;20199;-81
2020/12/20 04:19:08;;;;;;;0.60;0.60;;;6.60;99.90;;;;;;5068974;28;20432;-82
2020/12/20 04:21:35;;;;;;;0.55;0.55;;;6.70;99.90;;;;;;5068508;28;20199;-82
2020/12/20 04:24:01;;;;;;;0.57;0.57;;;6.60;99.90;;;;;;5068577;28;20199;-82
2020/12/20 04:26:28;;;;;;;0.50;0.50;;;6.50;99.90;;;;;;5069002;28;20203;-81
2020/12/20 04:28:54;;;;;;;0.52;0.52;;;6.50;99.90;;;;;;5068508;28;20234;-82
2020/12/20 04:31:20;;;;;;;0.60;0.60;;;6.50;99.90;;;;;;5068582;28;20207;-82
2020/12/20 04:33:46;;;;;;;0.60;0.60;;;6.50;99.90;;;;;;5068319;28;20558;-82
2020/12/20 04:36:13;;;;;;;0.50;0.50;;;6.50;99.90;;;;;;5069106;28;20203;-82
2020/12/20 04:38:39;;;;;;;0.50;0.50;;;6.40;99.90;;;;;;5072351;28;20196;-82
2020/12/20 04:41:06;;;;;;;0.50;0.50;;;6.40;99.90;;;;;;5072147;28;20200;-82
2020/12/20 04:43:32;;;;;;;0.60;0.60;;;6.40;99.90;;;;;;5072200;28;20621;-81
2020/12/20 04:45:58;;;;;;;0.52;0.52;;;6.40;99.90;;;;;;5072091;28;20212;-81
2020/12/20 04:48:35;;;;;;;0.50;0.50;;;6.40;99.90;;;;;;5072052;28;20216;-81
2020/12/20 04:51:02;;;;;;;0.50;0.50;;;6.40;99.90;;;;;;5071889;28;20207;-81
2020/12/20 04:53:29;;;;;;;0.57;0.57;;;6.30;99.90;;;;;;5072083;28;20680;-81
2020/12/20 04:56:00;;;;;;;0.55;0.55;;;6.40;99.90;;;;;;5071858;28;20249;-81
2020/12/20 04:58:27;;;;;;;0.60;0.60;;;6.30;99.90;;;;;;5071951;28;20204;-81
2020/12/20 05:00:53;;;;;;;0.50;0.50;;;6.30;99.90;;;;;;5071772;28;20312;-81
2020/12/20 05:03:19;;;;;;;0.60;0.60;;;6.30;99.90;;;;;;5072074;28;20286;-81
2020/12/20 05:05:45;;;;;;;0.55;0.55;;;6.30;99.90;;;;;;5071379;28;20377;-81
2020/12/20 05:08:14;;;;;;;0.50;0.50;;;6.30;99.90;;;;;;5071644;28;20653;-81
2020/12/20 05:10:41;;;;;;;0.52;0.52;;;6.30;99.90;;;;;;5071457;28;20226;-81
2020/12/20 05:13:08;;;;;;;0.50;0.50;;;6.30;99.90;;;;;;5071208;28;20200;-81
2020/12/20 05:15:35;;;;;;;0.60;0.60;;;6.30;99.90;;;;;;5071421;28;20200;-81
2020/12/20 05:18:05;;;;;;;0.50;0.50;;;6.30;99.90;;;;;;5071368;28;20199;-81
2020/12/20 05:20:37;;;;;;;0.55;0.55;;;6.30;99.90;;;;;;5071363;28;20200;-81
2020/12/20 05:23:03;;;;;;;0.57;0.57;;;6.30;99.90;;;;;;5071328;28;20215;-81
2020/12/20 05:25:30;;;;;;;0.50;0.50;;;6.20;99.90;;;;;;5071304;28;20204;-81
2020/12/20 05:28:11;;;;;;;0.60;0.60;;;6.20;99.90;;;;;;5071308;28;20211;-81
2020/12/20 05:30:38;;;;;;;0.60;0.60;;;6.20;99.90;;;;;;5071436;28;20618;-81
2020/12/20 05:33:07;;;;;;;0.57;0.57;;;6.20;99.90;;;;;;5071323;28;20211;-81
2020/12/20 05:35:33;;;;;;;0.60;0.60;;;6.30;99.90;;;;;;5071053;28;20204;-81
2020/12/20 05:38:00;;;;;;;0.60;0.60;;;6.20;99.90;;;;;;5071193;28;20253;-81
2020/12/20 05:40:28;;;;;;;0.55;0.55;;;6.20;99.90;;;;;;5071293;28;20192;-81
2020/12/20 05:43:00;;;;;;;0.60;0.60;;;6.30;99.90;;;;;;5070857;28;20204;-81
2020/12/20 05:45:28;;;;;;;0.60;0.60;;;6.30;99.90;;;;;;5071261;28;20577;-81
2020/12/20 05:47:55;;;;;;;0.50;0.50;;;6.20;99.90;;;;;;5072219;28;20594;-84
2020/12/20 05:50:26;;;;;;;0.52;0.52;;;6.20;99.90;;;;;;5078273;28;20222;-80
2020/12/20 05:53:06;;;;;;;0.57;0.57;;;6.30;99.90;;;;;;5071058;28;20199;-82
2020/12/20 05:55:37;;;;;;;0.60;0.60;;;6.20;99.90;;;;;;5070711;28;20207;-81
2020/12/20 05:58:13;;;;;;;0.50;0.50;;;6.20;99.90;;;;;;5070896;28;20203;-81
2020/12/20 06:00:41;;;;;;;0.60;0.60;;;6.20;99.90;;;;;;5070656;28;20260;-81
2020/12/20 06:03:08;;;;;;;0.50;0.50;;;6.20;99.90;;;;;;5070832;28;20210;-81
2020/12/20 06:05:36;;;;;;;0.50;0.50;;;6.20;99.90;;;;;;5070689;28;20716;-81
2020/12/20 06:08:14;;;;;;;0.50;0.50;;;6.20;99.90;;;;;;5070550;28;20200;-81
2020/12/20 06:10:42;;;;;;;0.60;0.60;;;6.20;99.90;;;;;;5070377;28;20276;-81
2020/12/20 06:13:11;;;;;;;0.50;0.50;;;6.20;99.90;;;;;;5070500;28;20203;-81
2020/12/20 06:15:40;;;;;;;0.50;0.50;;;6.20;99.90;;;;;;5070485;28;20211;-81
2020/12/20 06:18:11;;;;;;;0.60;0.60;;;6.10;99.90;;;;;;5070326;28;20196;-81
2020/12/20 06:20:50;;;;;;;0.60;0.60;;;6.10;99.90;;;;;;5070484;28;20199;-81
2020/12/20 06:23:19;;;;;;;0.60;0.60;;;6.10;99.90;;;;;;5070163;28;20208;-82
2020/12/20 06:25:47;;;;;;;0.60;0.60;;;6.00;99.90;;;;;;5070252;28;20191;-81
2020/12/20 06:28:17;;;;;;;0.52;0.52;;;6.00;99.90;;;;;;5070246;28;20211;-81
2020/12/20 06:30:45;;;;;;;0.50;0.50;;;6.00;99.90;;;;;;5069980;28;20199;-82
2020/12/20 06:33:17;;;;;;;0.55;0.55;;;6.00;99.90;;;;;;5070199;28;20231;-81
2020/12/20 06:35:48;;;;;;;0.50;0.50;;;6.00;99.90;;;;;;5070065;28;20200;-82
2020/12/20 06:38:15;;;;;;;0.60;0.60;;;5.90;99.90;;;;;;5070037;28;20207;-82
2020/12/20 06:40:43;;;;;;;0.50;0.50;;;5.90;99.90;;;;;;5070119;28;20314;-82
2020/12/20 06:43:09;;;;;;;0.60;0.60;;;5.90;99.90;;;;;;5069966;28;20203;-82
2020/12/20 06:45:41;;;;;;;0.60;0.60;;;5.90;99.90;;;;;;5069817;28;20203;-82
2020/12/20 06:48:09;;;;;;;0.60;0.60;;;5.90;99.90;;;;;;5069887;28;20306;-81
2020/12/20 06:50:43;;;;;;;0.60;0.60;;;5.90;99.90;;;;;;5069695;28;20814;-82
2020/12/20 06:53:11;;;;;;;0.60;0.60;;;5.90;99.90;;;;;;5069882;28;20470;-81
2020/12/20 06:55:37;;;;;;;0.60;0.60;;;5.80;99.90;;;;;;5069721;28;20317;-81
2020/12/20 06:58:09;;;;;;;0.50;0.50;;;5.80;99.90;;;;;;5070057;28;20227;-82
2020/12/20 07:00:40;;;;;;;0.50;0.50;;;5.80;99.90;;;;;;5069345;28;20195;-82
2020/12/20 07:03:06;;;;;;;0.60;0.60;;;5.80;99.90;;;;;;5069761;28;20207;-82
2020/12/20 07:05:46;;;;;;;0.60;0.60;;;5.80;99.90;;;;;;5069492;28;20256;-81
2020/12/20 07:08:20;;;;;;;0.52;0.52;;;5.80;99.90;;;;;;5069864;28;20204;-81
2020/12/20 07:10:50;;;;;;;0.57;0.57;;;5.70;99.90;;;;;;5069283;28;20219;-82
2020/12/20 07:13:31;;;;;;;0.60;0.60;;;5.80;99.90;;;;;;5069756;28;20210;-82
2020/12/20 07:16:04;;;;;;;0.50;0.50;;;5.70;99.90;;;;;;5069507;28;20203;-82
2020/12/20 07:18:47;;;;;;;0.60;0.60;;;5.70;99.90;;;;;;5069258;28;20199;-82
2020/12/20 07:21:57;;;;;;;0.50;0.50;;;5.70;99.90;;;;;;5069117;28;20204;-81
2020/12/20 07:24:25;;;;;;;0.50;0.50;;;5.70;99.90;;;;;;5069135;28;20249;-81
2020/12/20 07:26:56;;;;;;;0.60;0.60;;;5.70;99.90;;;;;;5070019;28;20203;-81
2020/12/20 07:29:22;;;;;;;0.60;0.60;;;5.70;99.90;;;;;;5069283;28;20254;-81
2020/12/20 07:31:51;;;;;;;0.60;0.60;;;5.70;99.90;;;;;;5068887;28;20269;-82
2020/12/20 07:34:17;;;;;;;0.50;0.50;;;5.60;99.90;;;;;;5069319;28;20238;-82
2020/12/20 07:36:43;;;;;;;0.55;0.55;;;5.70;99.90;;;;;;5069238;28;20203;-82
2020/12/20 07:39:11;;;;;;;0.60;0.60;;;5.70;99.90;;;;;;5068964;28;20250;-81
2020/12/20 07:41:37;;;;;;;0.55;0.55;;;5.70;99.90;;;;;;5069056;28;20222;-81
2020/12/20 07:44:04;;;;;;;0.60;0.60;;;5.80;99.90;;;;;;5069130;28;20203;-81
2020/12/20 07:46:31;;;;;;;0.60;0.60;;;5.80;99.90;;;;;;5069313;28;20250;-81
2020/12/20 07:49:05;;;;;;;0.60;0.60;;;5.80;99.90;;;;;;5068615;28;20767;-81
2020/12/20 07:51:31;;;;;;;0.60;0.60;;;5.80;99.90;;;;;;5069199;28;20622;-81
2020/12/20 07:53:58;;;;;;;0.50;0.50;;;5.80;99.90;;;;;;5068989;28;20207;-81
2020/12/20 07:56:27;;;;;;;0.55;0.55;;;5.90;99.90;;;;;;5068799;28;20302;-81
2020/12/20 07:58:54;;;;;;;0.60;0.60;;;5.90;99.90;;;;;;5068786;28;20199;-81
2020/12/20 08:01:21;;;;;;;0.50;0.50;;;5.90;99.90;;;;;;5068875;28;20238;-81
2020/12/20 08:03:47;;;;;;;0.50;0.50;;;6.00;99.90;;;;;;5068312;28;20211;-81
2020/12/20 08:06:15;;;;;;;0.57;0.57;;;6.00;99.90;;;;;;5068933;28;20199;-81
2020/12/20 08:08:43;;;;;;;0.50;0.50;;;6.00;99.90;;;;;;5068743;28;20219;-80
2020/12/20 08:11:28;;;;;;;0.60;0.60;;;6.00;99.90;;;;;;5069144;28;20666;-81
2020/12/20 08:13:55;;;;;;;0.50;0.50;;;6.00;99.90;;;;;;5072757;28;20392;-82
2020/12/20 08:16:26;;;;;;;0.50;0.50;;;6.10;99.90;;;;;;5072653;28;20195;-82
2020/12/20 08:18:54;;;;;;;0.60;0.60;;;6.00;99.90;;;;;;5072653;28;20203;-82
2020/12/20 08:21:26;;;;;;;0.50;0.50;;;6.00;99.90;;;;;;5072784;28;20206;-82
2020/12/20 08:23:54;;;;;;;0.60;0.60;;;6.00;99.90;;;;;;5072772;28;20223;-82
2020/12/20 08:26:31;;;;;;;0.60;0.60;;;6.00;99.90;;;;;;5073146;28;20203;-82
2020/12/20 08:29:00;;;;;;;0.50;0.50;;;6.00;99.90;;;;;;5091594;28;20248;-86
2020/12/20 08:31:31;;;;;;;0.50;0.50;;;6.00;99.90;;;;;;5085656;28;20202;-83
2020/12/20 08:35:03;;;;;;;;;;;;;;;;;;;;;
2020/12/20 08:37:57;;;;;;;0.60;0.60;;;6.20;99.90;;;;;;4918221;29;20203;-86
2020/12/20 08:43:01;;;;;;;0.50;0.50;;;6.20;99.90;;;;;;5043980;23;20248;-86
2020/12/20 08:45:31;;;;;;;0.60;0.60;;;6.90;99.90;;;;;;5039729;28;20197;-86
2020/12/20 08:48:01;;;;;;;0.60;0.60;;;6.00;99.90;;;;;;5041029;28;20296;-85
2020/12/20 08:50:54;;;;;;;0.57;0.57;;;6.30;99.90;;;;;;5231501;22;20248;-86
2020/12/20 08:53:24;;;;;;;0.50;0.50;;;6.30;99.90;;;;;;5032731;28;20201;-81
2020/12/20 08:55:50;;;;;;;0.60;0.60;;;6.30;99.90;;;;;;5031973;28;20197;-81
2020/12/20 08:58:19;;;;;;;0.50;0.50;;;6.30;99.90;;;;;;5032292;28;20201;-82
2020/12/20 09:00:47;;;;;;;0.60;0.60;;;6.30;99.90;;;;;;5030437;28;20193;-81
2020/12/20 09:03:13;;;;;;;0.50;0.50;;;6.30;99.90;;;;;;5031599;28;20205;-82
2020/12/20 09:05:39;;;;;;;0.50;0.50;;;6.40;99.90;;;;;;5023553;28;20197;-82
2020/12/20 09:08:05;;;;;;;0.50;0.50;;;6.40;99.90;;;;;;5030355;28;20204;-80
2020/12/20 09:10:33;;;;;;;0.50;0.50;;;6.30;99.90;;;;;;5031629;28;20275;-81
2020/12/20 09:13:02;;;;;;;0.50;0.50;;;6.40;99.90;;;;;;5031858;28;20205;-81
2020/12/20 09:15:33;;;;;;;0.60;0.60;;;6.50;99.90;;;;;;5032020;28;20582;-81
2020/12/20 09:18:15;;;;;;;0.50;0.50;;;6.50;99.90;;;;;;5031727;28;20605;-82
2020/12/20 09:20:42;;;;;;;0.60;0.60;;;6.50;99.90;;;;;;5031488;28;20201;-82
2020/12/20 09:23:16;;;;;;;0.50;0.50;;;6.50;99.90;;;;;;5030440;28;20208;-81
2020/12/20 09:25:43;;;;;;;0.50;0.50;;;6.50;99.90;;;;;;5031721;28;20259;-81
2020/12/20 09:28:19;;;;;;;0.60;0.60;;;6.50;99.90;;;;;;5031863;28;20573;-80
2020/12/20 09:30:47;;;;;;;0.50;0.50;;;6.50;99.90;;;;;;5031579;28;20691;-80
2020/12/20 09:33:22;;;;;;;0.55;0.55;;;6.50;99.90;;;;;;5031534;28;20263;-81
2020/12/20 09:35:54;;;;;;;0.60;0.60;;;6.60;99.90;;;;;;5031513;28;20211;-81
2020/12/20 09:38:21;;;;;;;0.50;0.50;;;6.60;99.90;;;;;;5025690;28;20201;-81
2020/12/20 09:40:57;;;;;;;0.50;0.50;;;6.50;99.90;;;;;;5020982;28;20380;-81
2020/12/20 09:43:23;;;;;;;0.50;0.50;;;6.50;99.90;;;;;;5020409;28;20388;-81
2020/12/20 09:45:50;;;;;;;0.50;0.50;;;6.60;99.90;;;;;;5018868;28;20200;-81
2020/12/20 09:48:26;;;;;;;0.50;0.50;;;6.60;99.90;;;;;;5021327;28;20204;-81
2020/12/20 09:50:53;;;;;;;0.50;0.50;;;6.60;99.90;;;;;;5015842;28;20280;-81
2020/12/20 09:53:19;;;;;;;0.50;0.50;;;6.60;99.90;;;;;;5019934;28;20201;-80
2020/12/20 09:55:45;;;;;;;0.50;0.50;;;6.60;99.90;;;;;;5020620;28;20201;-81
2020/12/20 09:58:12;;;;;;;0.50;0.50;;;6.60;99.90;;;;;;5019926;28;20190;-85
2020/12/20 10:00:56;;;;;;;0.50;0.50;;;6.60;99.90;;;;;;5021369;28;20676;-81
2020/12/20 10:03:24;;;;;;;0.60;0.60;;;6.60;99.90;;;;;;5023996;28;20201;-83
2020/12/20 10:05:59;;;;;;;0.60;0.60;;;6.60;99.90;;;;;;5033484;28;20201;-84
2020/12/20 10:08:29;;;;;;;0.50;0.50;;;6.60;99.90;;;;;;5022367;28;20201;-88
2020/12/20 10:10:55;;;;;;;0.50;0.50;;;6.60;99.90;;;;;;5017062;28;20457;-80
2020/12/20 10:13:22;;;;;;;0.60;0.60;;;6.70;99.90;;;;;;5021678;28;20321;-81
2020/12/20 10:15:48;;;;;;;0.50;0.50;;;6.70;99.90;;;;;;5018077;28;20256;-81
2020/12/20 10:18:15;;;;;;;0.60;0.60;;;6.70;99.90;;;;;;5020221;28;20197;-81
2020/12/20 10:20:42;;;;;;;0.50;0.50;;;6.60;99.90;;;;;;5019595;28;20652;-81
2020/12/20 10:23:08;;;;;;;0.52;0.52;;;6.70;99.90;;;;;;5018412;28;20209;-81
2020/12/20 10:25:35;;;;;;;0.50;0.50;;;6.70;99.90;;;;;;5015787;28;20193;-81
2020/12/20 10:28:01;;;;;;;0.50;0.50;;;6.70;99.90;;;;;;5016649;28;20198;-81
2020/12/20 10:30:27;;;;;;;0.50;0.50;;;6.70;99.90;;;;;;5017406;28;20224;-80
2020/12/20 10:32:55;;;;;;;0.40;0.40;;;6.70;99.90;;;;;;5011777;28;20198;-81
2020/12/20 10:35:24;;;;;;;0.50;0.50;;;6.70;99.90;;;;;;5009112;28;20197;-81
2020/12/20 10:37:51;;;;;;;0.50;0.50;;;6.70;99.90;;;;;;5013546;28;20758;-81
2020/12/20 10:40:17;;;;;;;0.57;0.57;;;6.70;99.90;;;;;;5020034;28;20229;-81
2020/12/20 10:42:45;;;;;;;0.50;0.50;;;6.70;99.90;;;;;;5015589;28;20218;-84
2020/12/20 10:45:11;;;;;;;0.50;0.50;;;6.70;99.90;;;;;;5015719;28;20209;-81
2020/12/20 10:47:37;;;;;;;0.52;0.52;;;6.70;99.90;;;;;;5016257;28;20205;-80
2020/12/20 10:50:04;;;;;;;0.50;0.50;;;6.60;99.90;;;;;;4999911;28;20771;-81
2020/12/20 10:52:31;;;;;;;0.50;0.50;;;6.70;99.90;;;;;;5011579;28;20256;-83
2020/12/20 10:54:59;;;;;;;0.50;0.50;;;6.60;99.90;;;;;;5019370;28;20690;-84
2020/12/20 10:57:25;;;;;;;0.50;0.50;;;6.60;99.90;;;;;;5023348;28;20849;-84
2020/12/20 10:59:51;;;;;;;0.55;0.55;;;6.60;99.90;;;;;;5023375;28;20193;-85
2020/12/20 11:02:20;;;;;;;0.50;0.50;;;6.60;99.90;;;;;;5036498;28;20193;-83
2020/12/20 11:07:43;;;;;;;0.50;0.50;;;6.60;99.90;;;;;;5246345;22;20756;-85
2020/12/20 11:10:11;;;;;;;0.50;0.50;;;6.10;99.90;;;;;;5145492;22;20284;-86
2020/12/20 11:12:49;;;;;;;0.52;0.52;;;6.40;99.90;;;;;;5064295;28;20208;-85
2020/12/20 11:15:16;;;;;;;0.50;0.50;;;6.60;99.90;;;;;;5066026;28;20200;-83
2020/12/20 11:17:42;;;;;;;0.50;0.50;;;6.60;99.90;;;;;;5054234;28;20200;-83
2020/12/20 11:20:09;;;;;;;0.50;0.50;;;6.70;99.90;;;;;;5051200;28;20257;-84
2020/12/20 11:22:36;;;;;;;0.50;0.50;;;6.60;99.90;;;;;;5051077;28;20200;-84
2020/12/20 11:25:03;;;;;;;0.50;0.50;;;6.70;99.90;;;;;;5057240;28;20211;-84
2020/12/20 11:27:29;;;;;;;0.50;0.50;;;6.70;99.90;;;;;;5051395;28;20200;-83
2020/12/20 11:29:55;;;;;;;0.50;0.50;;;6.70;99.90;;;;;;5039573;28;20252;-84
2020/12/20 11:32:21;;;;;;;0.50;0.50;;;6.70;99.90;;;;;;5039046;28;20203;-82
2020/12/20 11:34:47;;;;;;;0.50;0.50;;;6.70;99.90;;;;;;5040592;28;20208;-84
2020/12/20 11:37:13;;;;;;;0.50;0.50;;;6.70;99.90;;;;;;5044023;28;20201;-84
2020/12/20 11:39:39;;;;;;;0.50;0.50;;;6.70;99.90;;;;;;5035862;28;20659;-84
2020/12/20 11:42:10;;;;;;;0.50;0.50;;;6.70;99.90;;;;;;5042036;28;20197;-86
2020/12/20 11:44:36;;;;;;;0.50;0.50;;;6.70;99.90;;;;;;5034384;28;20236;-83
2020/12/20 11:47:03;;;;;;;0.50;0.50;;;6.70;99.90;;;;;;5030819;28;20722;-83
2020/12/20 11:49:29;;;;;;;0.50;0.50;;;6.70;99.90;;;;;;5032015;28;20243;-83
2020/12/20 11:51:55;;;;;;;0.50;0.50;;;6.80;99.90;;;;;;5033515;28;20204;-84
2020/12/20 11:54:21;;;;;;;0.50;0.50;;;6.80;99.90;;;;;;5025459;28;20204;-83
2020/12/20 11:56:47;;;;;;;0.50;0.50;;;6.80;99.90;;;;;;5032446;28;20205;-84
2020/12/20 11:59:14;;;;;;;0.50;0.50;;;6.80;99.90;;;;;;5031899;28;20201;-84
2020/12/20 12:01:41;;;;;;;0.50;0.50;;;6.80;99.90;;;;;;5034599;28;20247;-83
2020/12/20 12:04:07;;;;;;;0.50;0.50;;;6.90;99.90;;;;;;5034105;28;20204;-84
2020/12/20 12:06:33;;;;;;;0.50;0.50;;;6.90;99.90;;;;;;5035831;28;20197;-83
2020/12/20 12:09:00;;;;;;;0.50;0.50;;;;;;;;;;5035776;28;20225;-84
2020/12/20 12:11:26;;;;;;;0.50;0.50;;;;;;;;;;5040620;28;20639;-84
2020/12/20 12:13:52;;;;;;;0.50;0.50;;;7.00;99.90;;;;;;5040049;28;20644;-84
2020/12/20 12:16:21;;;;;;;0.50;0.50;;;7.70;99.90;;;;;;5042709;28;20208;-83
2020/12/20 12:18:51;;;;;;;0.50;0.50;;;7.00;99.90;;;;;;5041550;28;20197;-84
2020/12/20 12:21:18;;;;;;;0.50;0.50;;;7.00;99.90;;;;;;5042316;28;20209;-84
2020/12/20 12:23:45;;;;;;;0.50;0.50;;;6.50;99.90;;;;;;5045042;28;20197;-84
2020/12/20 12:26:12;;;;;;;0.50;0.50;;;;;;;;;;5041618;28;20197;-84
2020/12/20 12:28:38;;;;;;;0.50;0.50;;;;;;;;;;5038982;28;20205;-84
2020/12/20 12:31:04;;;;;;;0.50;0.50;;;7.00;99.90;;;;;;5034051;28;20225;-85
2020/12/20 12:33:31;;;;;;;0.50;0.50;;;8.60;99.90;;;;;;5028994;28;20212;-85
2020/12/20 12:35:58;;;;;;;0.50;0.50;;;7.00;99.90;;;;;;5036714;28;20209;-84
2020/12/20 12:38:24;;;;;;;0.50;0.50;;;7.10;99.90;;;;;;5033687;28;20722;-83
2020/12/20 12:40:53;;;;;;;0.50;0.50;;;7.00;99.90;;;;;;5030144;28;20204;-83
2020/12/20 12:43:20;;;;;;;0.50;0.50;;;;;;;;;;5033727;28;20201;-84
2020/12/20 12:45:54;;;;;;;0.50;0.50;;;7.10;99.90;;;;;;5063767;28;20187;-84
2020/12/20 12:48:21;;;;;;;0.50;0.50;;;;;;;;;;5060752;28;20291;-84
2020/12/20 12:50:54;;;;;;;0.50;0.50;;;7.10;99.90;;;;;;5047370;28;20251;-84
2020/12/20 12:53:25;;;;;;;0.50;0.50;;;7.10;99.90;;;;;;5044750;28;20211;-84
2020/12/20 12:56:00;;;;;;;0.50;0.50;;;7.10;99.90;;;;;;5046705;28;20248;-84
2020/12/20 12:58:48;;;;;;;0.50;0.50;;;7.00;99.90;;;;;;5043179;28;20622;-84
2020/12/20 13:01:47;;;;;;;;;;;;;;;;;;;;;
2020/12/20 13:04:50;;;;;;;;;;;;;;;;;;;;;
2020/12/20 13:07:21;;;;;;;0.50;0.50;;;6.70;99.90;;;;;;5064677;28;20199;-84
2020/12/20 13:09:51;;;;;;;0.50;0.50;;;7.70;99.90;;;;;;5073856;28;20251;-84
2020/12/20 13:12:30;;;;;;;;;;;;;;;;;;;;;
2020/12/20 13:15:05;;;;;;;0.50;0.50;;;7.00;99.90;;;;;;5054244;28;20199;-84
2020/12/20 13:17:54;;;;;;;0.50;0.50;;;5.80;99.90;;;;;;5051035;28;20184;-84